• Join FlightAware (Why Join?)
  • Login
  • US Flag 
09:12AM EDT


 

Airport Tracker/Info


-or-


 

Live Flight TrackerFlight Track Log ✈ UAE538 ✈ 24-Apr-2013 ✈ OMDB / DXB - VAAH / AMD

Flight Track Log - Related Links

Times and Time Zones

All times are in EDT time to prevent confusion due to time zone crossing. See the UAE538 flight status page for this flight to view local times or setup timezone preferences in your user account.

Time Position Orientation Groundspeed Altitude Reporting Facility
EDT Latitude Longitude Course Direction KTS MPH feet Rate Location/Type
02:56PM 25.2640 55.3510 301° West 163 188 600  Level FlightAware
02:56PM 25.2740 55.3340 303° West 171 197 1,500 1,440 Climbing FlightAware
02:57PM 25.2850 55.3140 301° West 198 228 1,800 1,200 Climbing FlightAware
02:57PM 25.3050 55.2900 313° West 234 269 2,600 2,100 Climbing FlightAware
02:57PM 25.3220 55.2860 348° North 242 278 3,400 3,300 Climbing FlightAware
02:58PM 25.3540 55.3050 28° Northeast 248 285 4,800 1,560 Climbing FlightAware
02:58PM 25.3870 55.3280 32° Northeast 289 333 5,000 600 Climbing FlightAware
02:59PM 25.4150 55.3480 33° Northeast 294 338 5,400 1,620 Climbing FlightAware
02:59PM 25.4290 55.3660 49° Northeast 297 342 6,100 2,640 Climbing FlightAware
02:59PM 25.4340 55.3790 67° East 297 342 6,500 2,160 Climbing FlightAware
02:59PM 25.4360 55.3950 82° East 295 339 7,000 2,400 Climbing FlightAware
03:00PM 25.4280 55.4430 100° East 303 349 8,300 2,400 Climbing FlightAware
03:01PM 25.4160 55.5090 101° East 318 366 10,000 1,380 Climbing FlightAware
03:01PM 25.4040 55.5720 102° East 318 366 10,300 180 Climbing FlightAware
03:02PM 25.3950 55.6270 100° East 318 366 10,300  Level FlightAware
03:03PM 25.3850 55.6810 102° East 318 366 10,300 480 Level FlightAware
03:05PM 25.3666 55.9150 95° East  Level Estimated
03:06PM 25.3567 56.0392 95° East  Level Estimated
03:07PM 25.3466 56.1634 95° East  Level Estimated
03:08PM 25.3365 56.2876 95° East  Level Estimated
03:09PM 25.3263 56.4118 95° East  Level Estimated
03:10PM 25.3159 56.5359 95° East  Level Estimated
03:11PM 25.3055 56.6600 95° East  Level Estimated
03:12PM 25.2949 56.7841 95° East  Level Estimated
03:13PM 25.2843 56.9082 95° East  Level Estimated
03:14PM 25.2735 57.0322 95° East  Level Estimated
03:15PM 25.2626 57.1563 96° East  Level Estimated
03:16PM 25.2517 57.2803 96° East  Level Estimated
03:17PM 25.2406 57.4043 96° East  Level Estimated
03:18PM 25.2294 57.5282 96° East  Level Estimated
03:19PM 25.2181 57.6522 96° East  Level Estimated
03:20PM 25.2068 57.7761 96° East  Level Estimated
03:21PM 25.1953 57.9000 96° East  Level Estimated
03:22PM 25.1837 58.0239 96° East  Level Estimated
03:23PM 25.1720 58.1477 96° East  Level Estimated
03:24PM 25.1602 58.2715 96° East  Level Estimated
03:25PM 25.1483 58.3953 96° East  Level Estimated
03:26PM 25.1363 58.5191 96° East  Level Estimated
03:27PM 25.1242 58.6428 96° East  Level Estimated
03:28PM 25.1120 58.7666 96° East  Level Estimated
03:29PM 25.0997 58.8903 96° East  Level Estimated
03:30PM 25.0873 59.0140 96° East  Level Estimated
03:31PM 25.0748 59.1376 96° East  Level Estimated
03:32PM 25.0622 59.2612 96° East  Level Estimated
03:33PM 25.0494 59.3848 96° East  Level Estimated
03:34PM 25.0366 59.5084 97° East  Level Estimated
03:35PM 25.0237 59.6320 97° East  Level Estimated
03:36PM 25.0107 59.7555 97° East  Level Estimated
03:37PM 24.9976 59.8790 97° East  Level Estimated
03:38PM 24.9843 60.0024 97° East  Level Estimated
03:39PM 24.9710 60.1259 97° East  Level Estimated
03:40PM 24.9576 60.2493 97° East  Level Estimated
03:41PM 24.9440 60.3727 97° East  Level Estimated
03:42PM 24.9304 60.4961 97° East  Level Estimated
03:43PM 24.9167 60.6194 97° East  Level Estimated
03:44PM 24.9028 60.7427 97° East  Level Estimated
03:45PM 24.8889 60.8660 97° East  Level Estimated
03:46PM 24.8748 60.9892 97° East  Level Estimated
03:47PM 24.8607 61.1124 97° East  Level Estimated
03:48PM 24.8465 61.2356 97° East  Level Estimated
03:49PM 24.8321 61.3588 97° East  Level Estimated
03:50PM 24.8177 61.4819 97° East  Level Estimated
03:51PM 24.8032 61.6050 97° East  Level Estimated
03:52PM 24.7885 61.7281 97° East  Level Estimated
03:53PM 24.7738 61.8512 97° East  Level Estimated
03:54PM 24.7589 61.9742 98° East  Level Estimated
03:55PM 24.7439 62.0972 98° East  Level Estimated
03:56PM 24.7289 62.2201 98° East  Level Estimated
03:57PM 24.7138 62.3431 98° East  Level Estimated
03:57PM 24.1060 64.0380 98° East 528 608 39,000  Level FlightAware
03:58PM 24.6985 62.4660 98° East  Level Estimated
03:58PM 24.1080 64.1540 89° East 528 608 39,000  Level FlightAware
03:58PM 24.1090 64.2450 89° East 528 608 39,000  Level FlightAware
03:59PM 24.1110 64.3590 89° East 528 608 39,000  Level FlightAware
04:00PM 24.1130 64.4690 89° East 528 608 39,000  Level FlightAware
04:00PM 24.1150 64.5740 89° East 528 608 39,000  Level FlightAware
04:01PM 24.1170 64.7240 89° East 526 605 39,000  Level FlightAware
04:02PM 24.1180 64.8310 89° East 526 605 39,000  Level FlightAware
04:03PM 24.1190 64.9330 89° East 527 606 39,000  Level FlightAware
04:03PM 24.1210 65.0530 89° East 528 608 39,000  Level FlightAware
04:04PM 24.1220 65.1600 89° East 529 609 39,000  Level FlightAware
04:05PM 24.1230 65.2830 89° East 524 603 39,000  Level FlightAware
04:05PM 24.1240 65.3620 89° East 525 604 39,000  Level FlightAware
04:06PM 24.1260 65.4660 89° East 525 604 39,000  Level FlightAware
04:07PM 24.1270 65.5790 89° East 525 604 39,000  Level FlightAware
04:07PM 24.1270 65.7180 90° East 527 606 39,000  Level FlightAware
04:08PM 24.1270 65.8390 90° East 529 609 39,000  Level FlightAware
04:09PM 24.1280 65.9470 89° East 530 610 39,000  Level FlightAware
04:10PM 24.1290 66.0640 89° East 529 609 39,000  Level FlightAware
04:10PM 24.1290 66.1620 90° East 528 608 39,000  Level FlightAware
04:11PM 24.1300 66.2780 89° East 527 606 39,000  Level FlightAware
04:12PM 24.1300 66.3800 90° East 527 606 39,000  Level FlightAware
04:12PM 24.1300 66.5080 90° East 527 606 39,000  Level FlightAware
04:13PM 24.1300 66.6140 90° East 526 605 39,000  Level FlightAware
04:14PM 24.1300 66.7150 90° East 526 605 39,000  Level FlightAware
04:14PM 24.1300 66.8370 90° East 525 604 39,000  Level FlightAware
04:15PM 24.1300 66.9610 90° East 526 605 39,000  Level FlightAware
04:16PM 24.1300 67.0670 90° East 527 606 39,000  Level FlightAware
04:17PM 24.1300 67.1820 90° East 526 605 39,000  Level FlightAware
04:17PM 24.1290 67.2880 91° East 523 602 39,000  Level FlightAware
04:18PM 24.1290 67.3930 90° East 522 601 39,000  Level FlightAware
04:19PM 24.1280 67.5150 90° East 521 600 39,000  Level FlightAware
04:19PM 24.1280 67.6210 90° East 521 600 39,000  Level FlightAware
04:20PM 24.1270 67.7360 91° East 520 598 39,000  Level FlightAware
04:21PM 24.1260 67.8430 91° East 521 600 39,000  Level FlightAware
04:21PM 24.1260 67.9480 90° East 522 601 39,000  Level FlightAware
04:22PM 24.1250 68.0700 90° East 524 603 39,000  Level FlightAware
04:23PM 24.1240 68.1750 91° East 524 603 39,000  Level FlightAware
04:24PM 24.1230 68.2920 91° East 525 604 39,000  Level FlightAware
04:24PM 24.1220 68.3970 91° East 526 605 39,000  Level FlightAware
04:25PM 24.1200 68.5040 91° East 527 606 39,000  Level FlightAware
04:26PM 24.1190 68.6270 90° East 526 605 39,000  Level FlightAware
04:26PM 24.1140 68.7330 93° East 525 604 39,000  Level FlightAware
04:27PM 24.0960 68.8480 100° East 523 602 39,000  Level FlightAware
04:28PM 24.0700 68.9470 106° East 522 601 39,000  Level FlightAware
04:28PM 24.0430 69.0510 106° East 522 601 39,000  Level FlightAware
04:29PM 24.0170 69.1520 106° East 522 601 39,000  Level FlightAware
04:30PM 23.9880 69.2650 106° East 523 602 39,000  Level FlightAware
04:31PM 23.9600 69.3710 106° East 522 601 39,000  Level FlightAware
04:31PM 23.9310 69.4800 106° East 519 597 39,000  Level FlightAware
04:32PM 23.9070 69.5700 106° East 515 593 39,000  Level FlightAware
04:33PM 23.8740 69.6940 106° East 513 590 39,000  Level FlightAware
04:33PM 23.8480 69.7940 106° East 512 589 39,000  Level FlightAware
04:34PM 23.8260 69.8960 103° East 512 589 39,000 -1,140 Level FlightAware
04:35PM 23.8070 70.0090 100° East 526 605 37,400 -1,920 Descending FlightAware
04:35PM 23.7900 70.1110 100° East 513 590 36,300 -2,160 Descending FlightAware
04:36PM 23.7710 70.2250 100° East 514 592 34,400 -2,880 Descending FlightAware
04:37PM 23.7530 70.3310 100° East 518 596 32,300 -2,760 Descending FlightAware
04:38PM 23.7340 70.4410 101° East 514 592 30,500 -1,440 Descending FlightAware
04:39PM 23.7130 70.5690 100° East 501 577 29,900 -2,160 Descending FlightAware
04:39PM 23.6970 70.6570 101° East 488 562 27,300 -1,980 Descending FlightAware
04:40PM 23.6800 70.7580 100° East 488 562 27,300  Level FlightAware
04:41PM 23.6670 70.8410 100° East 488 562 27,300  Level FlightAware
04:41PM 23.6540 70.9230 100° East 488 562 27,300  Level FlightAware
04:42PM 23.6370 71.0270 100° East 488 562 27,300  Level FlightAware
04:43PM 23.6240 71.1090 100° East 488 562 27,300  Level FlightAware
04:45PM 23.5531 71.3099 111° Southeast  Level Estimated
04:46PM 23.5136 71.4213 111° Southeast  Level Estimated
04:47PM 23.4741 71.5328 111° Southeast  Level Estimated
04:48PM 23.4344 71.6441 111° Southeast  Level Estimated
04:49PM 23.3947 71.7554 111° Southeast  Level Estimated
04:50PM 23.3549 71.8666 111° Southeast  Level Estimated
04:51PM 23.3150 71.9778 111° Southeast  Level Estimated
04:52PM 23.2750 72.0889 111° Southeast  Level Estimated
04:53PM 23.2350 72.1999 111° Southeast  Level Estimated
04:54PM 23.1949 72.3109 111° Southeast  Level Estimated
04:55PM 23.1547 72.4218 111° Southeast  Level Estimated
04:56PM 23.1144 72.5326 112° Southeast  Level Estimated
04:57PM 23.0772 72.6347 112° Southeast  Level Estimated
04:58PM 23.0772 72.6347 North  Level Estimated
04:59PM 23.0772 72.6347 North  Level Estimated
05:00PM 23.0772 72.6347 North  Level Estimated
05:01PM 23.0772 72.6347 North  Level Estimated
05:02PM 23.0772 72.6347 North  Level Estimated
05:03PM 23.0772 72.6347 North  Level Estimated
05:04PM 23.0772 72.6347 North  Level Estimated
05:05PM 23.0772 72.6347 North  Level Estimated
05:06PM 23.0772 72.6347 North  Level Estimated
05:07PM 23.0772 72.6347 North  Level Estimated
05:08PM 23.0772 72.6347 North  Level Estimated
05:09PM 23.0772 72.6347 North  Level Estimated
05:10PM 23.0772 72.6347 North  Level Estimated
05:11PM 23.0772 72.6347 North  Level Estimated
05:12PM 23.0772 72.6347 North  Level Estimated
05:13PM 23.0772 72.6347 North  Level Estimated
05:14PM 23.0772 72.6347 North  Level Estimated